Time;durP1;ratioP1;P1;durP2;ratioP2;P2;SDS_P1;SDS_P2;PMS_P1;PMS_P2;Temp;Humidity;BMP_temperature;BMP_pressure;BME280_temperature;BME280_humidity;BME280_pressure;Samples;Min_cycle;Max_cycle;Signal;HPM_P1;HPM_P2
2022/11/11 00:00:36;;;;;;;5.07;3.20;;;10.50;99.90;;;;;;7384759;19;20492;-79
2022/11/11 00:03:02;;;;;;;11.93;4.50;;;10.40;99.90;;;;;;7384449;19;20687;-78
2022/11/11 00:05:28;;;;;;;7.97;3.83;;;10.50;99.90;;;;;;7385412;19;20162;-78
2022/11/11 00:07:58;;;;;;;7.03;3.97;;;10.60;99.90;;;;;;7384015;19;20189;-78
2022/11/11 00:10:29;;;;;;;6.23;3.60;;;10.70;99.90;;;;;;7385031;19;20801;-80
2022/11/11 00:13:01;;;;;;;6.00;3.60;;;10.70;99.90;;;;;;7386054;19;20142;-76
2022/11/11 00:15:28;;;;;;;6.97;3.07;;;10.50;99.90;;;;;;7384838;19;20231;-77
2022/11/11 00:26:12;;;;;;;7.17;4.27;;;10.30;99.90;;;;;;7387202;19;20214;-77
2022/11/11 00:28:39;;;;;;;9.27;4.77;;;10.20;99.90;;;;;;7382787;19;20142;-80
2022/11/11 00:31:07;;;;;;;10.87;3.90;;;10.30;99.90;;;;;;7385496;19;20161;-78
2022/11/11 00:33:33;;;;;;;7.17;3.80;;;10.40;99.90;;;;;;7384812;19;20174;-78
2022/11/11 00:35:59;;;;;;;6.83;3.47;;;10.50;99.90;;;;;;7384451;19;20943;-78
2022/11/11 00:38:44;;;;;;;4.67;3.47;;;10.50;99.90;;;;;;7384774;19;20146;-78
2022/11/11 00:41:15;;;;;;;4.40;3.00;;;10.10;99.90;;;;;;7382532;19;20134;-77
2022/11/11 00:43:42;;;;;;;5.67;3.30;;;10.20;99.90;;;;;;7387302;19;20672;-79
2022/11/11 00:51:38;;;;;;;6.07;3.20;;;10.10;99.90;;;;;;7386864;19;20152;-79
2022/11/11 00:54:04;;;;;;;8.03;3.47;;;10.30;99.90;;;;;;7380980;19;20145;-79
2022/11/11 00:56:29;;;;;;;4.87;3.20;;;10.20;99.90;;;;;;7384262;19;20518;-78
2022/11/11 00:58:55;;;;;;;5.53;3.70;;;10.20;99.90;;;;;;7382098;19;20126;-77
2022/11/11 01:01:21;;;;;;;5.67;3.53;;;10.40;99.90;;;;;;7382460;19;20160;-78
2022/11/11 01:03:47;;;;;;;6.03;3.17;;;10.40;99.90;;;;;;7383482;19;20472;-79
2022/11/11 01:06:13;;;;;;;5.90;3.13;;;10.20;99.90;;;;;;7384000;19;20122;-79
2022/11/11 01:08:39;;;;;;;8.67;3.90;;;10.10;99.90;;;;;;7382979;19;20142;-79
2022/11/11 01:11:17;;;;;;;6.37;3.80;;;10.10;99.90;;;;;;7385483;19;20465;-78
2022/11/11 01:13:43;;;;;;;6.33;3.83;;;10.20;99.90;;;;;;7383615;19;20142;-79
2022/11/11 01:16:17;;;;;;;4.57;3.10;;;10.40;99.90;;;;;;7382582;19;20548;-79
2022/11/11 01:18:43;;;;;;;5.37;3.37;;;10.40;99.90;;;;;;7381718;19;20464;-78
2022/11/11 01:21:15;;;;;;;7.83;3.73;;;10.40;99.90;;;;;;7381812;19;20163;-79
2022/11/11 01:23:42;;;;;;;7.03;3.30;;;10.10;99.90;;;;;;7382956;19;20142;-79
2022/11/11 01:26:23;;;;;;;5.23;3.30;;;10.20;99.90;;;;;;7385618;19;20134;-79
2022/11/11 01:28:50;;;;;;;4.57;2.97;;;10.30;99.90;;;;;;7380275;19;20130;-78
2022/11/11 01:31:17;;;;;;;4.63;2.93;;;10.30;99.90;;;;;;7383164;19;20150;-78
2022/11/11 01:33:43;;;;;;;4.50;2.90;;;10.30;99.90;;;;;;7379683;19;20139;-78
2022/11/11 01:36:16;;;;;;;7.43;3.20;;;10.40;99.90;;;;;;7382897;19;20147;-78
2022/11/11 01:38:42;;;;;;;3.57;2.87;;;10.40;99.90;;;;;;7380504;19;20151;-79
2022/11/11 01:43:55;;;;;;;4.00;2.87;;;10.50;99.90;;;;;;7385787;19;20230;-78
2022/11/11 01:47:00;;;;;;;5.97;3.03;;;10.50;99.90;;;;;;7386005;19;20148;-77
2022/11/11 01:49:37;;;;;;;4.73;3.10;;;10.50;99.90;;;;;;7380628;19;20170;-78
2022/11/11 01:52:10;;;;;;;6.70;3.73;;;10.50;99.90;;;;;;7382583;19;20142;-79
2022/11/11 01:54:59;;;;;;;7.13;3.87;;;10.50;99.90;;;;;;7383561;19;20214;-77
2022/11/11 01:57:32;;;;;;;7.83;3.57;;;10.20;99.90;;;;;;7381555;19;20182;-79
2022/11/11 02:00:03;;;;;;;7.40;3.70;;;10.40;99.90;;;;;;7382002;19;20142;-79
2022/11/11 02:02:50;;;;;;;7.70;3.60;;;10.40;99.90;;;;;;7382376;19;20175;-78
2022/11/11 02:08:30;;;;;;;6.53;3.67;;;10.40;99.90;;;;;;7390744;19;20726;-81
2022/11/11 02:11:08;;;;;;;5.20;3.20;;;10.50;99.90;;;;;;7391178;19;20157;-78
2022/11/11 02:16:23;;;;;;;4.83;2.63;;;10.50;99.90;;;;;;7391471;19;20479;-79
2022/11/11 02:18:49;;;;;;;5.33;3.10;;;10.40;99.90;;;;;;7388852;19;20134;-78
2022/11/11 02:21:24;;;;;;;7.13;3.90;;;10.50;99.90;;;;;;7388253;19;20167;-79
2022/11/11 02:24:10;;;;;;;5.83;3.87;;;10.40;99.90;;;;;;7389944;19;20828;-79
2022/11/11 02:26:37;;;;;;;6.37;3.87;;;10.40;99.90;;;;;;7389612;19;20130;-77
2022/11/11 02:29:10;;;;;;;6.73;3.87;;;10.40;99.90;;;;;;7388481;19;20146;-77
2022/11/11 02:31:36;;;;;;;6.20;3.43;;;10.30;99.90;;;;;;7389171;19;20170;-78
2022/11/11 02:34:01;;;;;;;4.87;3.00;;;10.30;99.90;;;;;;7388849;19;20517;-78
2022/11/11 02:36:27;;;;;;;7.90;3.77;;;10.30;99.90;;;;;;7388608;19;20271;-79
2022/11/11 02:38:53;;;;;;;6.37;4.17;;;10.40;99.90;;;;;;7388661;19;20604;-78
2022/11/11 02:44:04;;;;;;;5.73;3.60;;;10.20;99.90;;;;;;7382862;19;20146;-78
2022/11/11 02:46:29;;;;;;;5.13;3.03;;;10.20;99.90;;;;;;7389958;19;20502;-78
2022/11/11 02:48:55;;;;;;;5.13;3.27;;;10.20;99.90;;;;;;7387788;19;20608;-81
2022/11/11 02:51:21;;;;;;;4.17;3.20;;;10.20;99.90;;;;;;7389293;19;20156;-80
2022/11/11 02:53:46;;;;;;;4.30;3.30;;;10.20;99.90;;;;;;7387538;19;20134;-79
2022/11/11 02:57:05;;;;;;;7.73;3.77;;;10.20;99.90;;;;;;7387203;19;20134;-78
2022/11/11 02:58:58;;;;;;;5.33;3.30;;;10.20;99.90;;;;;;7385527;19;20504;-79
2022/11/11 03:01:24;;;;;;;5.33;3.50;;;10.20;99.90;;;;;;7383996;19;20159;-79
2022/11/11 03:03:49;;;;;;;5.83;2.90;;;10.30;99.90;;;;;;7387126;19;20252;-80
2022/11/11 03:06:15;;;;;;;5.03;3.10;;;10.20;99.90;;;;;;7386766;19;20710;-78
2022/11/11 03:08:41;;;;;;;6.07;3.53;;;9.90;99.90;;;;;;7385532;19;20164;-77
2022/11/11 03:11:07;;;;;;;5.53;3.70;;;9.90;99.90;;;;;;7386633;19;20181;-79
2022/11/11 03:13:33;;;;;;;5.40;3.20;;;9.90;99.90;;;;;;7387234;19;20575;-78
2022/11/11 03:15:58;;;;;;;7.57;3.20;;;10.20;99.90;;;;;;7382695;19;20138;-78
2022/11/11 03:18:24;;;;;;;5.77;3.13;;;10.10;99.90;;;;;;7385473;19;20146;-78
2022/11/11 03:21:05;;;;;;;6.70;3.60;;;10.20;99.90;;;;;;7386603;19;20153;-78
2022/11/11 03:23:31;;;;;;;6.50;3.63;;;10.10;99.90;;;;;;7386730;19;20142;-79
2022/11/11 03:25:57;;;;;;;6.47;3.40;;;10.10;99.90;;;;;;7386975;19;20391;-78
2022/11/11 03:28:25;;;;;;;8.00;3.80;;;10.10;99.90;;;;;;7386279;19;20169;-79
2022/11/11 03:30:52;;;;;;;4.67;3.57;;;10.00;99.90;;;;;;7385750;19;20724;-79
2022/11/11 03:33:18;;;;;;;5.53;3.50;;;10.00;99.90;;;;;;7386196;19;20156;-79
2022/11/11 03:35:47;;;;;;;8.07;4.23;;;9.90;99.90;;;;;;7387778;19;20130;-79
2022/11/11 03:38:32;;;;;;;7.83;4.10;;;9.90;99.90;;;;;;7383873;19;20209;-78
2022/11/11 03:40:57;;;;;;;6.67;4.43;;;9.90;99.90;;;;;;7384741;19;20142;-79
2022/11/11 03:43:26;;;;;;;6.83;4.37;;;9.90;99.90;;;;;;7386988;19;20161;-79
2022/11/11 03:45:54;;;;;;;6.33;4.63;;;9.90;99.90;;;;;;7385633;19;20142;-77
2022/11/11 03:48:20;;;;;;;7.97;4.53;;;9.80;99.90;;;;;;7384300;19;20122;-79
2022/11/11 03:50:46;;;;;;;7.23;4.40;;;9.80;99.90;;;;;;7386957;19;20239;-78
2022/11/11 03:53:13;;;;;;;5.70;4.27;;;9.90;99.90;;;;;;7386670;19;20157;-79
2022/11/11 03:55:40;;;;;;;5.80;4.13;;;9.80;99.90;;;;;;7386925;19;20133;-79
2022/11/11 03:58:06;;;;;;;5.43;4.03;;;9.80;99.90;;;;;;7384650;19;20181;-75
2022/11/11 04:00:32;;;;;;;5.57;4.20;;;9.80;99.90;;;;;;7385123;19;20598;-74
2022/11/11 04:11:44;;;;;;;5.63;4.20;;;9.80;99.90;;;;;;7387005;19;20206;-74
2022/11/11 04:16:57;;;;;;;8.17;3.90;;;9.60;99.90;;;;;;7384539;19;20188;-75
2022/11/11 04:22:08;;;;;;;7.23;3.60;;;9.70;99.90;;;;;;7387457;19;20154;-74
2022/11/11 04:27:19;;;;;;;5.13;3.70;;;9.60;99.90;;;;;;7382784;19;20142;-73
2022/11/11 04:29:50;;;;;;;4.23;3.70;;;9.60;99.90;;;;;;7386275;19;20158;-75
2022/11/11 04:35:09;;;;;;;7.83;4.20;;;9.60;99.90;;;;;;7386256;19;20143;-74
2022/11/11 04:37:48;;;;;;;5.90;3.70;;;9.60;99.90;;;;;;7384961;19;21020;-74
2022/11/11 04:43:19;;;;;;;6.43;3.83;;;9.40;99.90;;;;;;7380979;19;20771;-73
2022/11/11 04:45:44;;;;;;;6.93;3.80;;;9.30;99.90;;;;;;7380529;19;20249;-74
2022/11/11 04:48:12;;;;;;;5.40;3.40;;;9.30;99.90;;;;;;7378967;19;20154;-74
2022/11/11 04:50:40;;;;;;;7.50;4.00;;;9.40;99.90;;;;;;7382631;19;20167;-74
2022/11/11 04:53:12;;;;;;;7.20;4.10;;;9.40;99.90;;;;;;7385755;19;20147;-74
2022/11/11 04:58:26;;;;;;;5.60;4.13;;;9.40;99.90;;;;;;7382433;19;21237;-73
2022/11/11 05:00:52;;;;;;;7.93;3.97;;;9.30;99.90;;;;;;7383623;19;20142;-73
2022/11/11 05:03:20;;;;;;;6.63;4.37;;;9.30;99.90;;;;;;7382684;19;20155;-74
2022/11/11 05:08:57;;;;;;;6.63;3.90;;;9.30;99.90;;;;;;7384336;19;20142;-75
2022/11/11 05:11:32;;;;;;;5.60;3.73;;;9.30;99.90;;;;;;7385236;19;20146;-73
2022/11/11 05:22:26;;;;;;;6.80;3.50;;;9.40;99.90;;;;;;7382634;19;20142;-75
2022/11/11 05:27:38;;;;;;;9.27;3.80;;;9.20;99.90;;;;;;7384144;19;20131;-72
2022/11/11 05:30:05;;;;;;;5.20;3.93;;;9.20;99.90;;;;;;7383384;19;20742;-73
2022/11/11 05:32:31;;;;;;;6.03;3.50;;;9.10;99.90;;;;;;7384770;19;20131;-75
2022/11/11 05:34:56;;;;;;;4.97;3.67;;;9.10;99.90;;;;;;7382436;19;20565;-74
2022/11/11 05:37:22;;;;;;;7.60;4.17;;;9.20;99.90;;;;;;7383012;19;20134;-72
2022/11/11 05:39:48;;;;;;;5.10;3.80;;;9.30;99.90;;;;;;7383957;19;20130;-73
2022/11/11 05:42:14;;;;;;;8.80;4.20;;;9.30;99.90;;;;;;7390400;19;20126;-73
2022/11/11 05:44:40;;;;;;;5.20;3.60;;;9.20;99.90;;;;;;7389899;19;20600;-73
2022/11/11 05:47:06;;;;;;;6.23;3.80;;;9.30;99.90;;;;;;7389201;19;20149;-73
2022/11/11 05:49:32;;;;;;;7.40;3.80;;;9.30;99.90;;;;;;7389551;19;20202;-75
2022/11/11 05:51:59;;;;;;;4.80;3.30;;;9.20;99.90;;;;;;7389182;19;20148;-74
2022/11/11 05:54:25;;;;;;;4.77;3.50;;;8.80;99.90;;;;;;7388829;19;20135;-72
2022/11/11 05:56:51;;;;;;;4.30;3.60;;;8.90;99.90;;;;;;7386725;19;20173;-75
2022/11/11 05:59:17;;;;;;;5.53;3.93;;;9.00;99.90;;;;;;7389067;19;20135;-74
2022/11/11 06:01:43;;;;;;;4.80;4.10;;;9.30;99.90;;;;;;7386852;19;20133;-74
2022/11/11 06:04:09;;;;;;;7.50;4.60;;;9.20;99.90;;;;;;7390143;19;20635;-73
2022/11/11 06:06:35;;;;;;;4.90;3.90;;;9.20;99.90;;;;;;7391919;19;20135;-75
2022/11/11 06:09:01;;;;;;;4.47;3.30;;;9.10;99.90;;;;;;7389715;19;20571;-73
2022/11/11 06:11:27;;;;;;;5.23;3.53;;;9.30;99.90;;;;;;7390148;19;20150;-75
2022/11/11 06:13:53;;;;;;;5.43;3.97;;;9.30;99.90;;;;;;7388232;19;20986;-74
2022/11/11 06:16:19;;;;;;;6.87;4.60;;;9.20;99.90;;;;;;7392349;19;20663;-72
2022/11/11 06:18:45;;;;;;;5.87;3.70;;;9.30;99.90;;;;;;7390121;19;20146;-73
2022/11/11 06:21:11;;;;;;;5.97;3.97;;;9.20;99.90;;;;;;7389322;19;20594;-72
2022/11/11 06:23:37;;;;;;;8.40;4.53;;;9.10;99.90;;;;;;7392384;19;20147;-74
2022/11/11 06:26:12;;;;;;;9.47;4.20;;;9.20;99.90;;;;;;7392960;19;20130;-74
2022/11/11 06:28:44;;;;;;;6.03;3.70;;;9.20;99.90;;;;;;7392036;19;20130;-75
2022/11/11 06:31:14;;;;;;;5.80;3.70;;;9.10;99.90;;;;;;7390373;19;20188;-75
2022/11/11 06:33:41;;;;;;;4.57;3.63;;;9.10;99.90;;;;;;7393209;19;20133;-73
2022/11/11 06:36:08;;;;;;;4.50;3.30;;;9.10;99.90;;;;;;7391436;19;20473;-74
2022/11/11 06:38:34;;;;;;;4.60;3.80;;;9.00;99.90;;;;;;7393467;19;20131;-75
2022/11/11 06:41:00;;;;;;;6.03;4.27;;;9.00;99.90;;;;;;7389734;19;20167;-76
2022/11/11 06:43:25;;;;;;;6.43;3.97;;;9.00;99.90;;;;;;7392021;19;20134;-76
2022/11/11 06:45:53;;;;;;;8.17;4.23;;;9.00;99.90;;;;;;7388797;19;20127;-75
2022/11/11 06:48:20;;;;;;;8.53;3.97;;;9.00;99.90;;;;;;7389564;19;20135;-75
2022/11/11 06:50:46;;;;;;;6.20;3.87;;;8.90;99.90;;;;;;7390787;19;20146;-77
2022/11/11 06:53:14;;;;;;;8.23;3.93;;;9.00;99.90;;;;;;7391947;19;20150;-74
2022/11/11 06:55:39;;;;;;;7.43;3.47;;;9.10;99.90;;;;;;7392250;19;20138;-76
2022/11/11 06:58:07;;;;;;;9.23;4.80;;;9.20;99.90;;;;;;7388543;19;20153;-80
2022/11/11 07:00:34;;;;;;;7.40;4.17;;;9.30;99.90;;;;;;7386252;19;20131;-75
2022/11/11 07:03:01;;;;;;;6.50;3.93;;;9.30;99.90;;;;;;7387996;19;20596;-75
2022/11/11 07:05:26;;;;;;;6.90;3.70;;;9.30;99.90;;;;;;7390768;19;20581;-75
2022/11/11 07:07:52;;;;;;;5.50;3.50;;;9.30;99.90;;;;;;7386341;19;20164;-75
2022/11/11 07:10:18;;;;;;;5.77;3.53;;;9.30;99.90;;;;;;7390593;19;20138;-72
2022/11/11 07:12:44;;;;;;;6.07;4.00;;;9.30;99.90;;;;;;7394883;19;20656;-75
2022/11/11 07:15:10;;;;;;;7.03;3.97;;;9.30;99.90;;;;;;7388372;19;20217;-75
2022/11/11 07:17:36;;;;;;;8.17;3.93;;;9.30;99.90;;;;;;7386838;19;20138;-75
2022/11/11 07:20:02;;;;;;;5.33;3.90;;;9.30;99.90;;;;;;7387852;19;20617;-75
2022/11/11 07:22:28;;;;;;;5.03;3.67;;;9.20;99.90;;;;;;7389082;19;20146;-76
2022/11/11 07:24:54;;;;;;;5.10;3.77;;;9.30;99.90;;;;;;7386871;19;20492;-76
2022/11/11 07:27:19;;;;;;;6.00;4.03;;;9.30;99.90;;;;;;7388065;19;20752;-75
2022/11/11 07:29:47;;;;;;;5.90;4.47;;;9.30;99.90;;;;;;7386658;19;20168;-76
2022/11/11 07:32:16;;;;;;;7.80;4.40;;;9.30;99.90;;;;;;7385923;19;20142;-75
2022/11/11 07:34:43;;;;;;;4.57;3.50;;;9.20;99.90;;;;;;7385488;19;20143;-75
2022/11/11 07:37:10;;;;;;;8.30;4.13;;;9.30;99.90;;;;;;7388304;19;20719;-75
2022/11/11 07:39:36;;;;;;;5.13;4.07;;;9.40;99.90;;;;;;7387590;19;20139;-76
2022/11/11 07:42:02;;;;;;;5.13;3.70;;;9.40;99.90;;;;;;7390760;19;20837;-75
2022/11/11 07:44:28;;;;;;;8.40;4.00;;;9.40;99.90;;;;;;7387397;19;20602;-75
2022/11/11 07:46:53;;;;;;;6.50;4.30;;;9.40;99.90;;;;;;7389965;19;20135;-75
2022/11/11 07:49:19;;;;;;;4.73;3.27;;;9.30;99.90;;;;;;7389253;19;20131;-75
2022/11/11 07:51:45;;;;;;;4.67;3.37;;;9.30;99.90;;;;;;7388943;19;20150;-76
2022/11/11 07:54:11;;;;;;;6.33;3.90;;;9.30;99.90;;;;;;7391561;19;20158;-75
2022/11/11 07:56:36;;;;;;;5.97;4.00;;;9.30;99.90;;;;;;7388716;19;20227;-77
2022/11/11 07:59:02;;;;;;;7.03;3.60;;;9.40;99.90;;;;;;7385095;19;20138;-75
2022/11/11 08:01:29;;;;;;;7.37;3.90;;;9.40;99.90;;;;;;7384947;19;20171;-75
2022/11/11 08:03:57;;;;;;;9.50;5.00;;;9.40;99.90;;;;;;7392833;19;20626;-75
2022/11/11 08:06:23;;;;;;;8.70;3.80;;;9.40;99.90;;;;;;7392697;19;20157;-74
2022/11/11 08:08:51;;;;;;;4.63;4.03;;;9.40;99.90;;;;;;7389113;19;20154;-76
2022/11/11 08:13:39;;;;;;;6.67;3.37;;;9.50;99.90;;;;;;7393691;19;20165;-75
2022/11/11 08:14:08;;;;;;;4.73;3.57;;;9.60;99.90;;;;;;7390628;19;20147;-74
2022/11/11 08:16:33;;;;;;;4.40;3.43;;;9.60;99.90;;;;;;7392525;19;20147;-75
2022/11/11 08:19:00;;;;;;;3.90;3.33;;;9.70;99.90;;;;;;7390321;19;20145;-75
2022/11/11 08:21:26;;;;;;;5.77;3.40;;;9.60;99.90;;;;;;7390757;19;20130;-76
2022/11/11 08:23:52;;;;;;;5.50;4.40;;;9.70;99.90;;;;;;7390931;19;20150;-75
2022/11/11 08:26:20;;;;;;;4.33;3.43;;;9.70;99.90;;;;;;7394339;19;20595;-74
2022/11/11 08:28:46;;;;;;;5.37;3.23;;;9.80;99.90;;;;;;7390347;19;20150;-75
2022/11/11 08:31:11;;;;;;;5.63;3.30;;;9.70;99.90;;;;;;7393802;19;20143;-76
2022/11/11 08:33:37;;;;;;;6.33;3.17;;;9.50;99.90;;;;;;7385151;19;20599;-75
2022/11/11 08:36:04;;;;;;;4.23;3.17;;;9.70;99.90;;;;;;7381052;19;20542;-75
2022/11/11 08:38:30;;;;;;;6.27;3.57;;;9.90;99.90;;;;;;7383655;19;20502;-76
2022/11/11 08:41:00;;;;;;;4.50;3.53;;;9.90;99.90;;;;;;7380344;19;20616;-76
2022/11/11 08:43:26;;;;;;;3.97;3.37;;;9.90;99.90;;;;;;7385040;19;20609;-75
2022/11/11 08:45:52;;;;;;;3.87;3.27;;;9.80;99.90;;;;;;7382645;19;20213;-74
2022/11/11 08:48:18;;;;;;;4.67;3.80;;;9.90;99.90;;;;;;7383076;19;20963;-76
2022/11/11 08:50:44;;;;;;;4.37;3.50;;;9.90;99.90;;;;;;7382302;19;20255;-76
2022/11/11 08:53:10;;;;;;;4.60;3.63;;;9.90;99.90;;;;;;7382484;19;20616;-75
2022/11/11 08:55:37;;;;;;;5.87;4.07;;;9.80;99.90;;;;;;7383598;19;20142;-74
2022/11/11 08:58:05;;;;;;;4.70;3.57;;;9.90;99.90;;;;;;7384041;19;20174;-73
2022/11/11 09:00:33;;;;;;;6.37;3.57;;;9.90;99.90;;;;;;7384618;19;20131;-75
2022/11/11 09:03:25;;;;;;;6.33;4.40;;;10.10;99.90;;;;;;7386296;19;20145;-75
2022/11/11 09:05:52;;;;;;;5.20;4.23;;;10.10;99.90;;;;;;7384141;19;20199;-75
2022/11/11 09:08:18;;;;;;;5.57;3.60;;;10.00;99.90;;;;;;7383255;19;20972;-75
2022/11/11 09:10:44;;;;;;;6.60;3.70;;;10.00;99.90;;;;;;7388395;19;20172;-75
2022/11/11 09:13:10;;;;;;;7.83;3.67;;;9.90;99.90;;;;;;7391255;19;20142;-74
2022/11/11 09:15:36;;;;;;;5.40;3.50;;;9.90;99.90;;;;;;7386586;19;20604;-74
2022/11/11 09:18:02;;;;;;;3.63;3.23;;;10.00;99.90;;;;;;7389420;19;20639;-75
2022/11/11 09:20:28;;;;;;;4.60;3.40;;;10.00;99.90;;;;;;7390625;19;20134;-75
2022/11/11 09:22:54;;;;;;;4.97;4.00;;;10.00;99.90;;;;;;7392021;19;20151;-75
2022/11/11 09:25:22;;;;;;;5.33;4.00;;;10.00;99.90;;;;;;7390430;19;20198;-76
2022/11/11 09:27:58;;;;;;;4.70;3.20;;;10.00;99.90;;;;;;7391046;19;20139;-75
2022/11/11 09:30:25;;;;;;;6.80;3.90;;;10.10;99.90;;;;;;7389161;19;20153;-75
2022/11/11 09:32:51;;;;;;;6.00;3.87;;;10.20;99.90;;;;;;7393079;19;20512;-75
2022/11/11 09:35:17;;;;;;;4.53;3.50;;;10.20;99.90;;;;;;7390113;19;20153;-74
2022/11/11 09:37:58;;;;;;;5.73;4.00;;;10.20;99.90;;;;;;7386990;19;20135;-75
2022/11/11 09:40:43;;;;;;;4.30;3.60;;;10.10;99.90;;;;;;7388763;19;20130;-76
2022/11/11 09:43:14;;;;;;;4.70;3.70;;;10.20;99.90;;;;;;7382608;19;20221;-75
2022/11/11 09:46:01;;;;;;;4.53;3.27;;;10.20;99.90;;;;;;7384058;19;20479;-74
2022/11/11 09:48:39;;;;;;;6.17;3.80;;;10.30;99.90;;;;;;7383872;19;20168;-74
2022/11/11 09:51:15;;;;;;;5.10;4.00;;;10.30;99.90;;;;;;7384353;19;20488;-75
2022/11/11 09:53:47;;;;;;;29.03;15.73;;;10.10;99.90;;;;;;7382721;19;20146;-75
2022/11/11 09:56:18;;;;;;;7.10;4.57;;;10.20;99.90;;;;;;7382966;19;20474;-75
2022/11/11 09:58:51;;;;;;;6.00;4.43;;;10.50;99.90;;;;;;7383354;19;20150;-73
2022/11/11 10:01:26;;;;;;;9.40;4.33;;;10.60;99.90;;;;;;7380802;19;20146;-76
2022/11/11 10:04:03;;;;;;;6.67;4.33;;;10.60;99.90;;;;;;7385960;19;20147;-75
2022/11/11 10:06:32;;;;;;;6.50;3.97;;;10.70;99.90;;;;;;7383669;19;20634;-75
2022/11/11 10:09:26;;;;;;;4.20;3.80;;;10.70;99.90;;;;;;7385431;19;20138;-74
2022/11/11 10:12:15;;;;;;;7.37;4.50;;;10.70;99.90;;;;;;7381629;19;20163;-75
2022/11/11 10:14:45;;;;;;;7.37;4.33;;;10.80;99.90;;;;;;7387864;19;20153;-74
2022/11/11 10:17:46;;;;;;;5.90;3.50;;;10.80;99.90;;;;;;7382749;19;20139;-74
2022/11/11 10:20:24;;;;;;;5.50;3.77;;;10.90;99.90;;;;;;7381753;19;20159;-75
2022/11/11 10:23:00;;;;;;;7.33;4.93;;;11.00;99.90;;;;;;7384073;19;20142;-74
2022/11/11 10:25:27;;;;;;;5.17;3.93;;;10.90;99.90;;;;;;7383861;19;20470;-74
2022/11/11 10:27:57;;;;;;;4.67;3.90;;;10.90;99.90;;;;;;7390365;19;20145;-74
2022/11/11 10:30:30;;;;;;;5.07;3.97;;;11.00;99.90;;;;;;7391383;19;20146;-75
2022/11/11 10:33:03;;;;;;;5.53;4.20;;;11.10;99.90;;;;;;7388020;19;20178;-76
2022/11/11 10:35:32;;;;;;;4.60;3.80;;;11.20;99.90;;;;;;7390656;19;20161;-75
2022/11/11 10:38:05;;;;;;;6.83;4.07;;;11.30;99.90;;;;;;7387819;19;20505;-76
2022/11/11 10:40:42;;;;;;;5.33;3.77;;;11.40;99.90;;;;;;7390628;19;20135;-76
2022/11/11 10:43:21;;;;;;;7.50;4.80;;;11.50;99.90;;;;;;7391277;19;20176;-75
2022/11/11 10:46:02;;;;;;;9.23;4.30;;;11.60;99.90;;;;;;7387801;19;20175;-74
2022/11/11 10:48:52;;;;;;;6.93;4.17;;;11.70;99.90;;;;;;7392039;19;20599;-74
2022/11/11 10:51:20;;;;;;;6.67;3.97;;;11.70;99.90;;;;;;7392057;19;20138;-75
2022/11/11 10:54:09;;;;;;;5.43;3.83;;;11.80;99.90;;;;;;7388843;19;20134;-76
2022/11/11 10:56:58;;;;;;;5.53;3.23;;;11.90;99.90;;;;;;7390258;19;20279;-75
2022/11/11 10:59:35;;;;;;;4.10;3.60;;;12.00;99.90;;;;;;7387204;19;20660;-76
2022/11/11 11:02:32;;;;;;;5.53;3.53;;;12.00;99.90;;;;;;7390170;19;20560;-74
2022/11/11 11:05:07;;;;;;;4.67;3.57;;;12.10;99.90;;;;;;7392051;19;20147;-75
2022/11/11 11:07:40;;;;;;;6.20;4.40;;;12.10;99.90;;;;;;7386604;19;20153;-74
2022/11/11 11:10:31;;;;;;;5.13;3.37;;;12.10;99.90;;;;;;7389837;19;20560;-75
2022/11/11 11:13:14;;;;;;;5.37;3.77;;;12.20;99.90;;;;;;7386926;19;20122;-75
2022/11/11 11:15:48;;;;;;;4.93;3.77;;;12.30;99.90;;;;;;7388407;19;20145;-75
2022/11/11 11:18:16;;;;;;;5.87;3.80;;;12.30;99.90;;;;;;7388472;19;20139;-75
2022/11/11 11:20:57;;;;;;;5.90;4.33;;;12.40;99.90;;;;;;7391264;19;20164;-76
2022/11/11 11:23:45;;;;;;;6.70;4.00;;;12.50;99.90;;;;;;7392200;19;20134;-75
2022/11/11 11:26:13;;;;;;;8.30;4.40;;;12.50;99.90;;;;;;7388808;19;20156;-75
2022/11/11 11:28:52;;;;;;;7.77;4.93;;;12.50;99.90;;;;;;7385479;19;20492;-76
2022/11/11 11:31:36;;;;;;;6.17;3.70;;;12.40;99.90;;;;;;7394249;19;20206;-75
2022/11/11 11:34:03;;;;;;;5.77;4.23;;;12.50;99.90;;;;;;7393375;19;20146;-75
2022/11/11 11:36:31;;;;;;;6.73;4.10;;;12.60;99.90;;;;;;7392835;19;20174;-77
2022/11/11 11:38:59;;;;;;;4.90;4.20;;;12.70;99.90;;;;;;7392391;19;20127;-74
2022/11/11 11:41:43;;;;;;;7.27;4.23;;;12.70;99.90;;;;;;7390831;19;20165;-73
2022/11/11 11:44:33;;;;;;;6.37;4.00;;;12.70;99.90;;;;;;7392022;19;20248;-76
2022/11/11 11:47:36;;;;;;;6.18;4.18;;;12.80;99.90;;;;;;7393667;19;20134;-76
2022/11/11 11:50:35;;;;;;;10.20;4.07;;;12.80;99.90;;;;;;7395611;19;20790;-76
2022/11/11 11:53:25;;;;;;;8.27;4.90;;;12.80;99.90;;;;;;7393173;19;20541;-75
2022/11/11 11:56:26;;;;;;;6.20;4.17;;;12.80;99.90;;;;;;7392487;19;20178;-75
2022/11/11 11:59:38;;;;;;;6.23;4.80;;;12.90;99.90;;;;;;7387060;19;20130;-76
2022/11/11 12:02:41;;;;;;;5.47;4.07;;;13.00;99.90;;;;;;7382091;19;20138;-75
2022/11/11 12:05:21;;;;;;;6.63;3.93;;;13.10;99.90;;;;;;7384402;19;20148;-76
2022/11/11 12:08:21;;;;;;;6.40;3.70;;;13.20;99.90;;;;;;7386343;19;20151;-75
2022/11/11 12:11:21;;;;;;;6.43;3.90;;;13.30;99.90;;;;;;7387165;19;20143;-76
2022/11/11 12:14:28;;;;;;;5.33;4.10;;;13.40;99.90;;;;;;7385972;19;20218;-76
2022/11/11 12:17:07;;;;;;;5.43;3.90;;;13.40;99.90;;;;;;7386459;19;20660;-74
2022/11/11 12:19:50;;;;;;;4.75;3.58;;;13.40;99.90;;;;;;7388221;19;20135;-75
2022/11/11 12:22:38;;;;;;;7.67;3.97;;;13.50;99.90;;;;;;7385623;19;20142;-75
2022/11/11 12:25:50;;;;;;;4.10;3.70;;;13.60;99.90;;;;;;7386559;19;20176;-76
2022/11/11 12:28:25;;;;;;;5.22;4.00;;;13.70;99.90;;;;;;7387946;19;20603;-75
2022/11/11 12:31:15;;;;;;;7.60;4.70;;;13.70;99.90;;;;;;7385755;19;20605;-75
2022/11/11 12:34:17;;;;;;;6.93;3.97;;;13.70;99.90;;;;;;7382410;19;20494;-75
2022/11/11 12:37:07;;;;;;;4.97;4.00;;;13.80;99.90;;;;;;7386236;19;20138;-75
2022/11/11 12:40:05;;;;;;;6.05;4.57;;;13.80;99.90;;;;;;7384543;19;20689;-76
2022/11/11 12:43:05;;;;;;;7.55;4.30;;;13.70;99.90;;;;;;7382876;19;20590;-75
2022/11/11 12:45:54;;;;;;;5.55;4.13;;;13.70;99.90;;;;;;7385037;19;20595;-75
2022/11/11 12:48:49;;;;;;;7.23;4.50;;;13.70;99.90;;;;;;7384895;19;20149;-74
2022/11/11 12:51:41;;;;;;;6.10;4.25;;;13.80;99.90;;;;;;7384942;19;20138;-75
2022/11/11 12:54:41;;;;;;;5.77;4.40;;;13.80;99.90;;;;;;7383194;19;20257;-75
2022/11/11 12:57:47;;;;;;;6.00;4.13;;;13.80;99.90;;;;;;7384355;19;20197;-76
2022/11/11 13:00:19;;;;;;;6.90;3.93;;;13.80;99.90;;;;;;7380572;19;20162;-74
2022/11/11 13:03:06;;;;;;;6.13;3.78;;;13.80;99.90;;;;;;7384940;19;20138;-75
2022/11/11 13:05:41;;;;;;;7.10;4.00;;;13.90;99.90;;;;;;7385612;19;20154;-75
2022/11/11 13:08:50;;;;;;;5.40;3.70;;;13.90;99.90;;;;;;7385128;19;20153;-74
2022/11/11 13:11:37;;;;;;;5.78;3.88;;;13.90;99.90;;;;;;7384751;19;20154;-74
2022/11/11 13:14:13;;;;;;;5.32;3.42;;;13.80;99.90;;;;;;7383368;19;20253;-75
2022/11/11 13:16:38;;;;;;;4.50;3.47;;;13.80;99.90;;;;;;7384468;19;20167;-75
2022/11/11 13:19:17;;;;;;;5.85;3.65;;;13.70;99.90;;;;;;7383976;19;20139;-75
2022/11/11 13:22:07;;;;;;;4.80;3.10;;;13.70;99.90;;;;;;7379971;19;20166;-75
2022/11/11 13:24:34;;;;;;;3.35;2.92;;;13.90;99.90;;;;;;7383746;19;20158;-75
2022/11/11 13:27:12;;;;;;;4.85;3.42;;;14.00;99.90;;;;;;7382034;19;20147;-75
2022/11/11 13:29:53;;;;;;;4.97;2.92;;;14.10;99.90;;;;;;7381723;19;20138;-76
2022/11/11 13:32:23;;;;;;;5.20;3.83;;;14.20;99.90;;;;;;7384616;19;20221;-76
2022/11/11 13:34:50;;;;;;;3.38;2.78;;;14.20;99.90;;;;;;7382153;19;20218;-75
2022/11/11 13:37:31;;;;;;;6.43;3.70;;;14.20;99.90;;;;;;7382569;19;20139;-76
2022/11/11 13:40:06;;;;;;;6.20;2.60;;;14.30;99.90;;;;;;7382913;19;20150;-75
2022/11/11 13:42:40;;;;;;;5.20;2.72;;;14.30;99.90;;;;;;7383401;19;20235;-76
2022/11/11 13:45:16;;;;;;;5.07;2.50;;;14.40;99.90;;;;;;7385170;19;20134;-75
2022/11/11 13:47:46;;;;;;;4.07;2.03;;;14.20;99.90;;;;;;7382304;19;20577;-74
2022/11/11 13:50:26;;;;;;;3.72;2.30;;;14.20;99.90;;;;;;7383565;19;20633;-75
2022/11/11 13:53:05;;;;;;;3.63;2.60;;;13.90;99.90;;;;;;7382012;19;20176;-76
2022/11/11 13:55:38;;;;;;;5.45;2.90;;;13.90;99.90;;;;;;7384104;19;20142;-75
2022/11/11 13:58:07;;;;;;;7.03;2.28;;;14.10;99.90;;;;;;7380285;19;20562;-75
2022/11/11 14:00:37;;;;;;;6.97;3.67;;;14.00;99.90;;;;;;7382999;19;20226;-75
2022/11/11 14:03:19;;;;;;;6.05;2.75;;;14.10;99.90;;;;;;7389072;19;20150;-76
2022/11/11 14:05:45;;;;;;;3.35;2.80;;;14.10;99.90;;;;;;7389223;19;20157;-76
2022/11/11 14:08:46;;;;;;;4.90;2.72;;;14.00;99.90;;;;;;7389431;19;20138;-76
2022/11/11 14:11:24;;;;;;;8.05;4.18;;;14.00;99.90;;;;;;7395363;19;20630;-75
2022/11/11 14:13:54;;;;;;;8.00;3.70;;;14.00;99.90;;;;;;7396272;19;20723;-75
2022/11/11 14:16:35;;;;;;;4.95;2.80;;;14.10;99.90;;;;;;7394841;19;20159;-76
2022/11/11 14:19:19;;;;;;;4.38;2.78;;;14.10;99.90;;;;;;7392908;19;20134;-77
2022/11/11 14:21:57;;;;;;;5.88;3.10;;;13.90;99.90;;;;;;7392632;19;20618;-77
2022/11/11 14:24:43;;;;;;;4.03;2.60;;;13.90;99.90;;;;;;7395462;19;20134;-76